GFA175 OMDB-OBBI
Flight info
| Callsign | GFA175 |
|---|---|
| Flight time | N/A |
| Altitude | 26000 |
| Route | KUTLI L519 ATUDO M318 GOLGU M550 RIBOT DCT SITUK M321 KSA/N0449F250 H976 MUSRI L604 KFA M691 LADNA |
| Aircraft | A343/H-SDE2E3FGHIJ4J5M1RWXY/LB1D1 |
Departure
| Time | 2026-05-06 18:18 |
|---|---|
| Airport | Dubai International Airport (OMDB) |
Arrival
| Time | N/A |
|---|---|
| Airport | Bahrain International Airport (OBBI) |
| Time | Latitude | Longitude | Altitude | Speed | Heading |
|---|---|---|---|---|---|
| 2026-05-06 17:57 | 25.24388 | 55.37293 | 30 ft | 0 kts | 211° |
| 2026-05-06 18:09 | 25.24396 | 55.37299 | 31 ft | 4 kts | 211° |
| 2026-05-06 18:09 | 25.24419 | 55.37314 | 31 ft | 4 kts | 211° |
| 2026-05-06 18:09 | 25.24438 | 55.37327 | 31 ft | 4 kts | 210° |
| 2026-05-06 18:09 | 25.24462 | 55.37336 | 31 ft | 4 kts | 172° |
| 2026-05-06 18:10 | 25.24484 | 55.37325 | 31 ft | 4 kts | 128° |
| 2026-05-06 18:10 | 25.24498 | 55.37301 | 31 ft | 4 kts | 122° |
| 2026-05-06 18:10 | 25.24506 | 55.37287 | 31 ft | 0 kts | 122° |
| 2026-05-06 18:12 | 25.24504 | 55.37290 | 31 ft | 1 kts | 122° |
| 2026-05-06 18:12 | 25.24499 | 55.37299 | 31 ft | 2 kts | 122° |
| 2026-05-06 18:13 | 25.24491 | 55.37314 | 31 ft | 3 kts | 121° |
| 2026-05-06 18:13 | 25.24471 | 55.37350 | 31 ft | 8 kts | 121° |
| 2026-05-06 18:13 | 25.24436 | 55.37424 | 28 ft | 13 kts | 110° |
| 2026-05-06 18:13 | 25.24427 | 55.37540 | 28 ft | 17 kts | 89° |
| 2026-05-06 18:14 | 25.24399 | 55.37663 | 28 ft | 17 kts | 122° |
| 2026-05-06 18:14 | 25.24339 | 55.37772 | 29 ft | 16 kts | 109° |
| 2026-05-06 18:14 | 25.24386 | 55.37862 | 26 ft | 14 kts | 35° |
| 2026-05-06 18:14 | 25.24477 | 55.37931 | 29 ft | 17 kts | 34° |
| 2026-05-06 18:15 | 25.24572 | 55.38012 | 27 ft | 17 kts | 53° |
| 2026-05-06 18:15 | 25.24552 | 55.38109 | 27 ft | 14 kts | 123° |
| 2026-05-06 18:15 | 25.24502 | 55.38214 | 26 ft | 16 kts | 97° |
| 2026-05-06 18:15 | 25.24570 | 55.38297 | 32 ft | 15 kts | 30° |
| 2026-05-06 18:16 | 25.24631 | 55.38321 | 30 ft | 6 kts | 338° |
| 2026-05-06 18:16 | 25.24661 | 55.38282 | 31 ft | 8 kts | 303° |
| 2026-05-06 18:16 | 25.24664 | 55.38277 | 27 ft | 0 kts | 303° |
| 2026-05-06 18:16 | 25.24666 | 55.38274 | 31 ft | 0 kts | 303° |
| 2026-05-06 18:17 | 25.24667 | 55.38272 | 30 ft | 4 kts | 303° |
| 2026-05-06 18:17 | 25.24783 | 55.38069 | 30 ft | 60 kts | 301° |
| 2026-05-06 18:17 | 25.25095 | 55.37504 | 31 ft | 110 kts | 302° |
| 2026-05-06 18:17 | 25.25575 | 55.36641 | 29 ft | 152 kts | 302° |
| 2026-05-06 18:18 | 25.26184 | 55.35551 | 205 ft | 173 kts | 302° |
| 2026-05-06 18:18 | 25.26815 | 55.34429 | 704 ft | 173 kts | 303° |
| 2026-05-06 18:18 | 25.27473 | 55.33283 | 1131 ft | 179 kts | 302° |
| 2026-05-06 18:18 | 25.28141 | 55.32126 | 1657 ft | 177 kts | 302° |
| 2026-05-06 18:19 | 25.28801 | 55.30947 | 2017 ft | 188 kts | 299° |
| 2026-05-06 18:19 | 25.29253 | 55.29519 | 2225 ft | 208 kts | 274° |
| 2026-05-06 18:19 | 25.28965 | 55.27882 | 2422 ft | 229 kts | 245° |
| 2026-05-06 18:19 | 25.28265 | 55.26248 | 2911 ft | 239 kts | 242° |
| 2026-05-06 18:20 | 25.27518 | 55.24597 | 3583 ft | 241 kts | 242° |
| 2026-05-06 18:20 | 25.26777 | 55.22925 | 4249 ft | 244 kts | 242° |
| 2026-05-06 18:20 | 25.26040 | 55.21220 | 4947 ft | 246 kts | 242° |
| 2026-05-06 18:20 | 25.25300 | 55.19502 | 5623 ft | 249 kts | 242° |
| 2026-05-06 18:21 | 25.24555 | 55.17759 | 6296 ft | 252 kts | 243° |
| 2026-05-06 18:21 | 25.23856 | 55.16115 | 6895 ft | 257 kts | 243° |
| 2026-05-06 18:21 | 25.22995 | 55.14349 | 7374 ft | 268 kts | 238° |
| 2026-05-06 18:21 | 25.22024 | 55.12556 | 7827 ft | 281 kts | 237° |
| 2026-05-06 18:22 | 25.21081 | 55.10803 | 8344 ft | 289 kts | 238° |
| 2026-05-06 18:22 | 25.20220 | 55.09091 | 8863 ft | 296 kts | 243° |
| 2026-05-06 18:22 | 25.19528 | 55.07392 | 9369 ft | 300 kts | 247° |
| 2026-05-06 18:22 | 25.18725 | 55.05255 | 10044 ft | 304 kts | 248° |
| 2026-05-06 18:23 | 25.17902 | 55.03038 | 10371 ft | 321 kts | 248° |
| 2026-05-06 18:23 | 25.17381 | 55.01635 | 10536 ft | 332 kts | 248° |
| 2026-05-06 18:23 | 25.16816 | 55.00116 | 10694 ft | 342 kts | 248° |
| 2026-05-06 18:23 | 25.15871 | 54.97637 | 10971 ft | 358 kts | 245° |
| 2026-05-06 18:24 | 25.14513 | 54.95274 | 11219 ft | 374 kts | 227° |
| 2026-05-06 18:24 | 25.12425 | 54.93523 | 11506 ft | 384 kts | 204° |
| 2026-05-06 18:24 | 25.09838 | 54.92743 | 11878 ft | 390 kts | 183° |
| 2026-05-06 18:24 | 25.07105 | 54.92660 | 12296 ft | 396 kts | 178° |
| 2026-05-06 18:25 | 25.04331 | 54.92688 | 12759 ft | 402 kts | 178° |
| 2026-05-06 18:25 | 25.01521 | 54.92472 | 13223 ft | 409 kts | 188° |
| 2026-05-06 18:25 | 24.98760 | 54.91661 | 13690 ft | 414 kts | 197° |
| 2026-05-06 18:25 | 24.96044 | 54.90542 | 14188 ft | 417 kts | 201° |
| 2026-05-06 18:26 | 24.93383 | 54.89263 | 14769 ft | 417 kts | 204° |
| 2026-05-06 18:26 | 24.90759 | 54.87916 | 15346 ft | 417 kts | 205° |
| 2026-05-06 18:26 | 24.88137 | 54.86544 | 15931 ft | 417 kts | 205° |
| 2026-05-06 18:26 | 24.85515 | 54.85175 | 16519 ft | 418 kts | 204° |
| 2026-05-06 18:27 | 24.82886 | 54.83818 | 17052 ft | 420 kts | 204° |
| 2026-05-06 18:27 | 24.80211 | 54.82453 | 17639 ft | 422 kts | 204° |
| 2026-05-06 18:27 | 24.77539 | 54.81102 | 18187 ft | 423 kts | 204° |
| 2026-05-06 18:27 | 24.74854 | 54.79751 | 18645 ft | 426 kts | 204° |
| 2026-05-06 18:28 | 24.72145 | 54.78393 | 19064 ft | 430 kts | 204° |
| 2026-05-06 18:28 | 24.69414 | 54.77025 | 19529 ft | 432 kts | 204° |
| 2026-05-06 18:28 | 24.66671 | 54.75649 | 20004 ft | 434 kts | 205° |
| 2026-05-06 18:28 | 24.63914 | 54.74267 | 20465 ft | 436 kts | 205° |
| 2026-05-06 18:29 | 24.61146 | 54.72881 | 20922 ft | 438 kts | 205° |
| 2026-05-06 18:29 | 24.58363 | 54.71487 | 21361 ft | 441 kts | 205° |
| 2026-05-06 18:29 | 24.55564 | 54.70084 | 21797 ft | 443 kts | 205° |
| 2026-05-06 18:29 | 24.52748 | 54.68674 | 22226 ft | 446 kts | 205° |
| 2026-05-06 18:30 | 24.49916 | 54.67257 | 22652 ft | 448 kts | 205° |
| 2026-05-06 18:30 | 24.47069 | 54.65833 | 23085 ft | 451 kts | 205° |
| 2026-05-06 18:30 | 24.44206 | 54.64401 | 23487 ft | 453 kts | 205° |
| 2026-05-06 18:30 | 24.41334 | 54.62965 | 23844 ft | 455 kts | 205° |
| 2026-05-06 18:31 | 24.38446 | 54.61523 | 24209 ft | 457 kts | 205° |
| 2026-05-06 18:31 | 24.35763 | 54.60184 | 24555 ft | 458 kts | 205° |
| 2026-05-06 18:31 | 24.32856 | 54.58734 | 24911 ft | 460 kts | 206° |
| 2026-05-06 18:31 | 24.29943 | 54.57268 | 25281 ft | 460 kts | 207° |
| 2026-05-06 18:32 | 24.27154 | 54.55540 | 25627 ft | 460 kts | 216° |
| 2026-05-06 18:32 | 24.24647 | 54.53376 | 25976 ft | 460 kts | 224° |
| 2026-05-06 18:32 | 24.22492 | 54.50791 | 26313 ft | 460 kts | 233° |
| 2026-05-06 18:32 | 24.20651 | 54.47921 | 26668 ft | 461 kts | 238° |
| 2026-05-06 18:33 | 24.19011 | 54.44905 | 27000 ft | 462 kts | 241° |
| 2026-05-06 18:33 | 24.17488 | 54.41857 | 27343 ft | 463 kts | 242° |
| 2026-05-06 18:33 | 24.15970 | 54.38744 | 27687 ft | 464 kts | 243° |
| 2026-05-06 18:33 | 24.14441 | 54.35624 | 28029 ft | 465 kts | 242° |
| 2026-05-06 18:34 | 24.12892 | 54.32512 | 28347 ft | 467 kts | 242° |
| 2026-05-06 18:34 | 24.11316 | 54.29396 | 28668 ft | 468 kts | 242° |
| 2026-05-06 18:34 | 24.09725 | 54.26286 | 28969 ft | 470 kts | 241° |
| 2026-05-06 18:34 | 24.08640 | 54.24178 | 29166 ft | 470 kts | 241° |
| 2026-05-06 18:35 | 24.06516 | 54.20068 | 29800 ft | 467 kts | 241° |
| 2026-05-06 18:35 | 24.05435 | 54.17982 | 30087 ft | 465 kts | 241° |
| 2026-05-06 18:35 | 24.03844 | 54.14911 | 30430 ft | 464 kts | 241° |
| 2026-05-06 18:35 | 24.02255 | 54.11842 | 30725 ft | 463 kts | 241° |
| 2026-05-06 18:36 | 24.00693 | 54.08823 | 31032 ft | 462 kts | 241° |
| 2026-05-06 18:36 | 23.99109 | 54.05765 | 31351 ft | 461 kts | 241° |
| 2026-05-06 18:36 | 23.97534 | 54.02752 | 31667 ft | 461 kts | 241° |
| 2026-05-06 18:36 | 23.95915 | 53.99689 | 31969 ft | 460 kts | 241° |
| 2026-05-06 18:37 | 23.94312 | 53.96669 | 32290 ft | 458 kts | 241° |
| 2026-05-06 18:37 | 23.92718 | 53.93664 | 32568 ft | 457 kts | 241° |
| 2026-05-06 18:37 | 23.91124 | 53.90660 | 32851 ft | 457 kts | 241° |
| 2026-05-06 18:37 | 23.89532 | 53.87662 | 33141 ft | 456 kts | 241° |
| 2026-05-06 18:38 | 23.87941 | 53.84667 | 33429 ft | 455 kts | 241° |
| 2026-05-06 18:38 | 23.86355 | 53.81682 | 33738 ft | 454 kts | 241° |
| 2026-05-06 18:38 | 23.84774 | 53.78702 | 33983 ft | 453 kts | 241° |
| 2026-05-06 18:38 | 23.83194 | 53.75725 | 34220 ft | 452 kts | 241° |
| 2026-05-06 18:39 | 23.81616 | 53.72755 | 34451 ft | 452 kts | 241° |
| 2026-05-06 18:39 | 23.80039 | 53.69792 | 34676 ft | 451 kts | 241° |
| 2026-05-06 18:39 | 23.78464 | 53.66831 | 34893 ft | 450 kts | 241° |
| 2026-05-06 18:40 | 23.75322 | 53.60926 | 35337 ft | 449 kts | 241° |
| 2026-05-06 18:40 | 23.73754 | 53.57978 | 35522 ft | 449 kts | 240° |
| 2026-05-06 18:40 | 23.72183 | 53.55026 | 35698 ft | 449 kts | 240° |
| 2026-05-06 18:41 | 23.69032 | 53.49106 | 35807 ft | 452 kts | 240° |
| 2026-05-06 18:41 | 23.65900 | 53.43196 | 35806 ft | 449 kts | 241° |
| 2026-05-06 18:42 | 23.62770 | 53.37289 | 35808 ft | 450 kts | 240° |
| 2026-05-06 18:42 | 23.59638 | 53.31388 | 35805 ft | 449 kts | 240° |
| 2026-05-06 18:43 | 23.56504 | 53.25495 | 35810 ft | 449 kts | 240° |
| 2026-05-06 18:43 | 23.53367 | 53.19601 | 35810 ft | 450 kts | 240° |
| 2026-05-06 18:44 | 23.50227 | 53.13708 | 35813 ft | 450 kts | 240° |
| 2026-05-06 18:44 | 23.47087 | 53.07824 | 35811 ft | 449 kts | 240° |
| 2026-05-06 18:45 | 23.43962 | 53.01977 | 35808 ft | 450 kts | 240° |
| 2026-05-06 18:45 | 23.40818 | 52.96093 | 35805 ft | 449 kts | 240° |
| 2026-05-06 18:46 | 23.37727 | 52.90185 | 35804 ft | 449 kts | 242° |
| 2026-05-06 18:46 | 23.34700 | 52.84235 | 35805 ft | 449 kts | 242° |
| 2026-05-06 18:47 | 23.31668 | 52.78288 | 35803 ft | 449 kts | 242° |
| 2026-05-06 18:47 | 23.28621 | 52.72356 | 35803 ft | 449 kts | 241° |
| 2026-05-06 18:48 | 23.25572 | 52.66436 | 35799 ft | 449 kts | 241° |
| 2026-05-06 18:48 | 23.22521 | 52.60522 | 35796 ft | 448 kts | 241° |
| 2026-05-06 18:49 | 23.19472 | 52.54610 | 35799 ft | 448 kts | 241° |
| 2026-05-06 18:49 | 23.17067 | 52.48624 | 35798 ft | 448 kts | 250° |
| 2026-05-06 18:50 | 23.15115 | 52.42199 | 35802 ft | 448 kts | 257° |
| 2026-05-06 18:50 | 23.14473 | 52.35469 | 35797 ft | 450 kts | 266° |
| 2026-05-06 18:51 | 23.14360 | 52.28666 | 35802 ft | 450 kts | 268° |
| 2026-05-06 18:51 | 23.14319 | 52.21864 | 35800 ft | 452 kts | 268° |
| 2026-05-06 18:52 | 23.14257 | 52.14972 | 35802 ft | 460 kts | 268° |
| 2026-05-06 18:52 | 23.14175 | 52.07990 | 35805 ft | 462 kts | 268° |
| 2026-05-06 18:53 | 23.14080 | 52.01008 | 35804 ft | 462 kts | 267° |
| 2026-05-06 18:53 | 23.13986 | 51.94035 | 35804 ft | 462 kts | 268° |
| 2026-05-06 18:54 | 23.13890 | 51.87058 | 35799 ft | 461 kts | 267° |
| 2026-05-06 18:54 | 23.13793 | 51.80082 | 35794 ft | 462 kts | 267° |
| 2026-05-06 18:55 | 23.13691 | 51.73106 | 35802 ft | 462 kts | 267° |
| 2026-05-06 18:55 | 23.13585 | 51.66126 | 35801 ft | 462 kts | 267° |
| 2026-05-06 18:56 | 23.13476 | 51.59144 | 35801 ft | 462 kts | 267° |
| 2026-05-06 18:56 | 23.13367 | 51.52167 | 35804 ft | 462 kts | 267° |
| 2026-05-06 18:57 | 23.13254 | 51.45184 | 35802 ft | 462 kts | 267° |
| 2026-05-06 18:57 | 23.13138 | 51.38249 | 35808 ft | 462 kts | 267° |
| 2026-05-06 18:58 | 23.13016 | 51.31273 | 35805 ft | 461 kts | 267° |
| 2026-05-06 18:58 | 23.12891 | 51.24310 | 35804 ft | 461 kts | 267° |
| 2026-05-06 18:59 | 23.12764 | 51.17342 | 35804 ft | 461 kts | 267° |
| 2026-05-06 18:59 | 23.12633 | 51.10383 | 35802 ft | 461 kts | 267° |
| 2026-05-06 19:00 | 23.12499 | 51.03417 | 35804 ft | 461 kts | 267° |
| 2026-05-06 19:00 | 23.12362 | 50.96449 | 35810 ft | 461 kts | 267° |
| 2026-05-06 19:01 | 23.12287 | 50.89480 | 35808 ft | 462 kts | 271° |
| 2026-05-06 19:01 | 23.13397 | 50.82596 | 35807 ft | 468 kts | 285° |